createdAt,value
2023-04-08T00:01:19.446Z,101582.97
2023-04-08T00:03:46.643Z,101590.16
2023-04-08T00:06:13.761Z,101588.72
2023-04-08T00:08:41.059Z,101583.38
2023-04-08T00:11:08.377Z,101587.91
2023-04-08T00:13:35.342Z,101593.22
2023-04-08T00:16:03.037Z,101593.03
2023-04-08T00:18:29.959Z,101591.19
2023-04-08T00:20:57.325Z,101585.03
2023-04-08T00:23:24.339Z,101591.19
2023-04-08T00:25:52.222Z,101590.56
2023-04-08T00:28:19.165Z,101585.22
2023-04-08T00:30:46.341Z,101590.56
2023-04-08T00:33:13.428Z,101588.94
2023-04-08T00:35:40.396Z,101586.88
2023-04-08T00:38:08.169Z,101597.75
2023-04-08T00:40:35.708Z,101581.53
2023-04-08T00:43:02.969Z,101593.44
2023-04-08T00:45:30.432Z,101590.56
2023-04-08T00:47:57.429Z,101582.78
2023-04-08T00:50:24.660Z,101590.56
2023-04-08T00:52:51.719Z,101584.41
2023-04-08T00:55:18.517Z,101580.31
2023-04-08T00:57:46.684Z,101588.72
2023-04-08T01:00:15.198Z,101579.47
2023-04-08T01:03:08.618Z,101589.13
2023-04-08T01:06:11.520Z,101593.84
2023-04-08T01:08:42.028Z,101594.88
2023-04-08T01:11:12.427Z,101595.91
2023-04-08T01:13:42.423Z,101595.91
2023-04-08T01:16:13.665Z,101602.06
2023-04-08T01:18:44.082Z,101601.84
2023-04-08T01:21:13.295Z,101608.84
2023-04-08T01:24:07.085Z,101604.13
2023-04-08T01:26:35.696Z,101608.84
2023-04-08T01:29:03.488Z,101611.09
2023-04-08T01:31:31.753Z,101604.72
2023-04-08T01:34:01.280Z,101605.75
2023-04-08T01:36:29.731Z,101608.22
2023-04-08T01:38:57.550Z,101612.72
2023-04-08T01:41:24.859Z,101610.88
2023-04-08T01:43:52.935Z,101614.59
2023-04-08T01:46:21.902Z,101614.78
2023-04-08T01:48:50.097Z,101605.56
2023-04-08T01:51:18.146Z,101612.53
2023-04-08T01:53:45.427Z,101609.03
2023-04-08T01:56:14.358Z,101598.38
2023-04-08T01:58:53.557Z,101608.63
2023-04-08T02:01:26.098Z,101603.69
2023-04-08T02:03:57.328Z,101609.44
2023-04-08T02:06:27.626Z,101619.50
2023-04-08T02:08:55.717Z,101627.50
2023-04-08T02:11:22.843Z,101629.78
2023-04-08T02:13:51.471Z,101631.63
2023-04-08T02:16:36.897Z,101630.41
2023-04-08T02:19:20.762Z,101632.25
2023-04-08T02:21:56.578Z,101632.44
2023-04-08T02:24:24.139Z,101631.81
2023-04-08T02:26:52.151Z,101620.94
2023-04-08T02:29:19.745Z,101625.47
2023-04-08T02:31:49.328Z,101628.75
2023-04-08T02:34:17.888Z,101628.94
2023-04-08T02:36:47.279Z,101639.41
2023-04-08T02:39:14.660Z,101627.91
2023-04-08T02:41:41.748Z,101642.28
2023-04-08T02:44:10.048Z,101642.69
2023-04-08T02:46:40.791Z,101652.13
2023-04-08T02:49:07.822Z,101645.16
2023-04-08T02:51:34.903Z,101651.09
2023-04-08T02:54:01.808Z,101645.16
2023-04-08T02:56:28.836Z,101647.81
2023-04-08T02:58:56.247Z,101657.88
2023-04-08T03:01:23.208Z,101663.84
2023-04-08T03:03:50.469Z,101652.97
2023-04-08T03:06:17.562Z,101659.53
2023-04-08T03:08:44.875Z,101652.53
2023-04-08T03:11:12.160Z,101651.09
2023-04-08T03:13:39.208Z,101659.72
2023-04-08T03:16:06.889Z,101670.19
2023-04-08T03:18:34.059Z,101665.69
2023-04-08T03:21:03.370Z,101672.25
2023-04-08T03:23:30.255Z,101669.78
2023-04-08T03:25:57.267Z,101678.81
2023-04-08T03:28:24.360Z,101670.19
2023-04-08T03:30:51.360Z,101672.84
2023-04-08T03:33:18.403Z,101672.03
2023-04-08T03:35:45.366Z,101675.53
2023-04-08T03:38:12.487Z,101681.25
2023-04-08T03:40:39.483Z,101679.63
2023-04-08T03:43:08.662Z,101679.63
2023-04-08T03:45:35.858Z,101681.06
2023-04-08T03:48:03.228Z,101691.94
2023-04-08T03:50:30.407Z,101685.78
2023-04-08T03:52:57.438Z,101688.25
2023-04-08T03:55:24.296Z,101694.59
2023-04-08T03:57:51.190Z,101694.59
2023-04-08T04:00:18.151Z,101699.31
2023-04-08T04:02:45.358Z,101699.13
2023-04-08T04:05:12.245Z,101699.31
2023-04-08T04:07:39.340Z,101700.13
2023-04-08T04:10:07.039Z,101684.13
2023-04-08T04:12:34.066Z,101697.66
2023-04-08T04:15:01.335Z,101702.59
2023-04-08T04:17:28.281Z,101706.28
2023-04-08T04:19:55.396Z,101712.44
2023-04-08T04:22:22.404Z,101719.84
2023-04-08T04:24:49.821Z,101711.00
2023-04-08T04:27:18.288Z,101728.66
2023-04-08T04:29:45.215Z,101721.88
2023-04-08T04:32:12.329Z,101728.25
2023-04-08T04:34:39.291Z,101714.50
2023-04-08T04:37:06.269Z,101730.50
2023-04-08T04:39:33.198Z,101728.84
2023-04-08T04:42:00.269Z,101730.91
2023-04-08T04:44:27.387Z,101735.63
2023-04-08T04:46:54.414Z,101740.13
2023-04-08T04:49:21.578Z,101749.19
2023-04-08T04:51:49.186Z,101738.31
2023-04-08T04:54:16.050Z,101746.13
2023-04-08T04:56:42.936Z,101747.56
2023-04-08T04:59:09.805Z,101749.00
2023-04-08T05:01:36.921Z,101762.75
2023-04-08T05:04:03.866Z,101759.91
2023-04-08T05:06:30.863Z,101751.69
2023-04-08T05:08:57.726Z,101763.00
2023-04-08T05:11:24.794Z,101761.97
2023-04-08T05:13:51.753Z,101766.28
2023-04-08T05:16:18.757Z,101760.31
2023-04-08T05:18:45.802Z,101758.88
2023-04-08T05:21:12.830Z,101759.09
2023-04-08T05:23:39.783Z,101759.91
2023-04-08T05:26:09.948Z,101761.41
2023-04-08T05:28:37.175Z,101760.38
2023-04-08T05:31:04.494Z,101769.63
2023-04-08T05:33:31.531Z,101785.88
2023-04-08T05:35:58.580Z,101796.34
2023-04-08T05:38:25.770Z,101782.59
2023-04-08T05:40:52.883Z,101799.88
2023-04-08T05:43:19.864Z,101787.38
2023-04-08T05:45:47.159Z,101790.84
2023-04-08T05:48:14.246Z,101787.59
2023-04-08T05:50:41.370Z,101794.38
2023-04-08T05:53:08.276Z,101803.63
2023-04-08T05:55:35.148Z,101803.03
2023-04-08T05:58:02.215Z,101798.09
2023-04-08T06:00:29.215Z,101802.41
2023-04-08T06:02:56.790Z,101808.38
2023-04-08T06:05:24.182Z,101814.56
2023-04-08T06:07:51.103Z,101804.09
2023-04-08T06:10:18.171Z,101818.47
2023-04-08T06:12:45.521Z,101813.75
2023-04-08T06:15:12.493Z,101823.41
2023-04-08T06:17:39.900Z,101822.38
2023-04-08T06:20:09.128Z,101825.28
2023-04-08T06:22:36.816Z,101820.16
2023-04-08T06:25:04.420Z,101822.81
2023-04-08T06:27:31.385Z,101828.34
2023-04-08T06:29:58.359Z,101830.19
2023-04-08T06:32:25.413Z,101825.88
2023-04-08T06:34:52.313Z,101826.28
2023-04-08T06:37:19.216Z,101840.06
2023-04-08T06:40:51.179Z,101840.03
2023-04-08T06:43:18.110Z,101841.69
2023-04-08T06:45:45.155Z,101852.56
2023-04-08T06:48:12.234Z,101845.13
2023-04-08T06:50:39.036Z,101852.34
2023-04-08T06:53:06.213Z,101857.66
2023-04-08T06:55:33.052Z,101857.59
2023-04-08T06:58:01.918Z,101859.38
2023-04-08T07:00:28.876Z,101873.53
2023-04-08T07:02:55.934Z,101868.53
2023-04-08T07:05:22.924Z,101863.09
2023-04-08T07:07:49.973Z,101868.41
2023-04-08T07:10:16.889Z,101862.19
2023-04-08T07:12:43.893Z,101886.84
2023-04-08T07:15:11.259Z,101870.94
2023-04-08T07:17:39.631Z,101880.13
2023-04-08T07:20:07.898Z,101873.50
2023-04-08T07:22:35.170Z,101890.38
2023-04-08T07:25:02.980Z,101882.94
2023-04-08T07:27:30.063Z,101893.56
2023-04-08T07:29:57.944Z,101897.44
2023-04-08T07:32:25.207Z,101898.88
2023-04-08T07:34:52.221Z,101897.88
2023-04-08T07:37:19.164Z,101904.44
2023-04-08T07:39:46.267Z,101903.19
2023-04-08T07:42:13.275Z,101905.44
2023-04-08T07:44:40.397Z,101897.75
2023-04-08T07:47:07.408Z,101885.97
2023-04-08T07:49:34.507Z,101906.19
2023-04-08T07:52:01.496Z,101904.25
2023-04-08T07:54:28.647Z,101896.13
2023-04-08T07:56:55.730Z,101911.28
2023-04-08T07:59:22.802Z,101903.41
2023-04-08T08:01:49.798Z,101910.50
2023-04-08T08:04:16.994Z,101911.31
2023-04-08T08:06:44.473Z,101918.63
2023-04-08T08:09:11.337Z,101910.75
2023-04-08T08:11:38.538Z,101911.09
2023-04-08T08:14:06.026Z,101912.97
2023-04-08T08:16:33.640Z,101907.38
2023-04-08T08:19:01.221Z,101907.50
2023-04-08T08:21:28.278Z,101913.94
2023-04-08T08:23:55.416Z,101915.13
2023-04-08T08:26:23.012Z,101919.22
2023-04-08T08:28:50.044Z,101925.66
2023-04-08T08:31:17.064Z,101928.78
2023-04-08T08:33:44.191Z,101928.19
2023-04-08T08:36:11.151Z,101934.78
2023-04-08T08:38:38.198Z,101939.38
2023-04-08T08:41:05.395Z,101927.59
2023-04-08T08:43:33.576Z,101941.53
2023-04-08T08:46:00.728Z,101939.81
2023-04-08T08:48:27.874Z,101935.75
2023-04-08T08:50:55.024Z,101939.75
2023-04-08T08:53:23.154Z,101942.00
2023-04-08T08:56:16.305Z,101940.34
2023-04-08T08:58:38.589Z,101946.41
2023-04-08T09:01:37.350Z,101952.63
2023-04-08T09:04:18.578Z,101952.72
2023-04-08T09:06:51.546Z,101951.75
2023-04-08T09:09:18.679Z,101957.34
2023-04-08T09:11:47.480Z,101963.91
2023-04-08T09:14:22.735Z,101957.63
2023-04-08T09:16:50.996Z,101971.31
2023-04-08T09:19:18.872Z,101968.63
2023-04-08T09:21:46.092Z,101967.56
2023-04-08T09:24:30.380Z,101972.03
2023-04-08T09:26:57.593Z,101977.66
2023-04-08T09:29:28.150Z,101980.34
2023-04-08T09:31:59.460Z,101990.56
2023-04-08T09:34:29.020Z,101983.53
2023-04-08T09:36:56.375Z,101981.56
2023-04-08T09:39:23.906Z,101989.78
2023-04-08T09:41:52.639Z,101981.41
2023-04-08T09:44:26.613Z,101985.59
2023-04-08T09:47:09.005Z,101981.19
2023-04-08T09:49:47.790Z,101988.22
2023-04-08T09:52:24.091Z,101981.81
2023-04-08T09:55:06.805Z,101989.00
2023-04-08T09:57:47.857Z,101990.25
2023-04-08T10:00:17.311Z,101986.00
2023-04-08T10:03:34.407Z,101981.69
2023-04-08T10:06:03.552Z,101992.72
2023-04-08T10:08:32.945Z,101986.94
2023-04-08T10:11:00.432Z,101993.72
2023-04-08T10:13:28.600Z,101986.47
2023-04-08T10:16:31.847Z,101989.94
2023-04-08T10:18:59.733Z,101988.44
2023-04-08T10:21:37.118Z,101993.97
2023-04-08T10:24:11.013Z,101977.59
2023-04-08T10:26:40.680Z,101975.78
2023-04-08T10:29:21.233Z,101985.63
2023-04-08T10:31:50.895Z,101988.06
2023-04-08T10:34:22.756Z,101980.19
2023-04-08T10:36:49.964Z,101973.47
2023-04-08T10:39:17.573Z,101988.63
2023-04-08T10:41:49.627Z,101984.16
2023-04-08T10:44:27.557Z,101993.41
2023-04-08T10:46:55.842Z,101993.50
2023-04-08T10:49:22.915Z,101984.41
2023-04-08T10:51:50.120Z,101986.47
2023-04-08T10:54:18.878Z,101984.50
2023-04-08T10:56:52.394Z,101984.00
2023-04-08T10:59:32.883Z,101984.50
2023-04-08T11:02:01.658Z,101974.63
2023-04-08T11:04:29.147Z,101985.44
2023-04-08T11:06:56.872Z,101981.34
2023-04-08T11:09:24.306Z,101988.47
2023-04-08T11:11:54.909Z,102005.41
2023-04-08T11:14:24.161Z,101990.91
2023-04-08T11:16:54.149Z,102004.00
2023-04-08T11:19:21.839Z,102000.47
2023-04-08T11:21:51.786Z,102004.31
2023-04-08T11:24:19.731Z,101992.22
2023-04-08T11:26:47.269Z,101997.69
2023-04-08T11:29:15.953Z,101996.06
2023-04-08T11:31:44.543Z,102001.47
2023-04-08T11:34:12.238Z,101989.50
2023-04-08T11:36:41.568Z,101994.50
2023-04-08T11:39:12.404Z,102001.47
2023-04-08T11:41:40.395Z,102002.63
2023-04-08T11:44:08.086Z,101994.84
2023-04-08T11:46:36.538Z,101994.00
2023-04-08T11:49:09.966Z,102000.22
2023-04-08T11:51:56.385Z,101997.94
2023-04-08T11:54:32.204Z,101992.09
2023-04-08T11:56:59.891Z,101988.78
2023-04-08T11:59:29.373Z,101980.72
2023-04-08T12:01:57.060Z,101970.16
2023-04-08T12:04:24.579Z,101971.28
2023-04-08T12:06:52.254Z,101969.06
2023-04-08T12:09:19.511Z,101978.47
2023-04-08T12:11:46.750Z,101966.16
2023-04-08T12:14:14.657Z,101975.47
2023-04-08T12:16:42.041Z,101966.88
2023-04-08T12:19:09.184Z,101966.34
2023-04-08T12:21:36.235Z,101975.59
2023-04-08T12:24:03.475Z,101962.13
2023-04-08T12:26:30.600Z,101976.72
2023-04-08T12:28:57.796Z,101958.50
2023-04-08T12:31:25.083Z,101971.34
2023-04-08T12:33:52.420Z,101976.56
2023-04-08T12:36:19.476Z,101969.47
2023-04-08T12:38:47.010Z,101969.00
2023-04-08T12:41:15.469Z,101968.34
2023-04-08T12:43:42.764Z,101967.03
2023-04-08T12:46:09.795Z,101973.00
2023-04-08T12:48:36.879Z,101975.81
2023-04-08T12:52:24.653Z,101968.50
2023-04-08T12:54:51.698Z,101961.81
2023-04-08T12:57:18.874Z,101951.66
2023-04-08T12:59:45.809Z,101949.03
2023-04-08T13:02:12.782Z,101959.53
2023-04-08T13:04:39.801Z,101955.22
2023-04-08T13:07:07.680Z,101961.28
2023-04-08T13:09:34.805Z,101947.25
2023-04-08T13:12:02.141Z,101953.69
2023-04-08T13:14:29.187Z,101942.59
2023-04-08T13:16:56.143Z,101954.53
2023-04-08T13:19:23.256Z,101939.16
2023-04-08T13:21:50.224Z,101943.34
2023-04-08T13:24:18.155Z,101948.00
2023-04-08T13:26:45.368Z,101932.78
2023-04-08T13:29:12.485Z,101936.03
2023-04-08T13:31:39.725Z,101955.50
2023-04-08T13:34:06.711Z,101944.00
2023-04-08T13:36:33.674Z,101937.81
2023-04-08T13:39:00.644Z,101936.63
2023-04-08T13:41:28.468Z,101936.19
2023-04-08T13:43:56.666Z,101944.25
2023-04-08T13:46:23.938Z,101942.03
2023-04-08T13:48:51.382Z,101943.41
2023-04-08T13:51:18.718Z,101937.34
2023-04-08T13:53:45.752Z,101943.47
2023-04-08T13:56:12.801Z,101935.31
2023-04-08T13:58:39.907Z,101930.44
2023-04-08T14:01:07.073Z,101930.53
2023-04-08T14:03:34.056Z,101930.66
2023-04-08T14:06:02.079Z,101930.53
2023-04-08T14:08:29.118Z,101929.41
2023-04-08T14:10:57.251Z,101921.31
2023-04-08T14:13:24.183Z,101919.56
2023-04-08T14:15:53.722Z,101912.72
2023-04-08T14:18:21.285Z,101916.34
2023-04-08T14:20:48.452Z,101924.84
2023-04-08T14:23:16.949Z,101910.75
2023-04-08T14:25:44.270Z,101905.34
2023-04-08T14:28:11.496Z,101916.09
2023-04-08T14:30:38.520Z,101908.09
2023-04-08T14:33:06.277Z,101894.16
2023-04-08T14:35:33.370Z,101902.97
2023-04-08T14:38:00.791Z,101900.69
2023-04-08T14:40:27.883Z,101907.50
2023-04-08T14:42:55.080Z,101899.25
2023-04-08T14:45:22.259Z,101915.59
2023-04-08T14:47:49.656Z,101904.88
2023-04-08T14:50:16.944Z,101910.34
2023-04-08T14:52:45.221Z,101901.81
2023-04-08T14:55:12.632Z,101910.78
2023-04-08T14:57:39.648Z,101909.25
2023-04-08T15:00:07.764Z,101911.41
2023-04-08T15:02:34.951Z,101912.09
2023-04-08T15:05:02.017Z,101913.34
2023-04-08T15:07:29.047Z,101905.50
2023-04-08T15:09:56.886Z,101896.53
2023-04-08T15:12:24.522Z,101908.06
2023-04-08T15:14:51.771Z,101905.34
2023-04-08T15:17:18.906Z,101901.63
2023-04-08T15:19:46.795Z,101905.56
2023-04-08T15:22:14.167Z,101900.44
2023-04-08T15:24:42.538Z,101909.06
2023-04-08T15:27:09.607Z,101903.25
2023-04-08T15:29:36.764Z,101909.56
2023-04-08T15:32:03.797Z,101898.53
2023-04-08T15:34:30.948Z,101900.50
2023-04-08T15:36:58.376Z,101910.72
2023-04-08T15:39:26.198Z,101906.34
2023-04-08T15:41:53.470Z,101909.47
2023-04-08T15:44:20.533Z,101906.28
2023-04-08T15:46:47.653Z,101913.19
2023-04-08T15:49:14.993Z,101915.66
2023-04-08T15:51:44.519Z,101928.22
2023-04-08T15:54:11.841Z,101916.59
2023-04-08T15:56:38.822Z,101917.34
2023-04-08T15:59:05.882Z,101912.44
2023-04-08T16:01:33.227Z,101920.63
2023-04-08T16:04:00.830Z,101922.25
2023-04-08T16:06:28.119Z,101919.06
2023-04-08T16:08:55.758Z,101922.47
2023-04-08T16:11:23.727Z,101931.13
2023-04-08T16:13:51.016Z,101935.41
2023-04-08T16:16:18.084Z,101931.47
2023-04-08T16:18:46.937Z,101934.00
2023-04-08T16:21:14.591Z,101937.84
2023-04-08T16:23:42.026Z,101940.78
2023-04-08T16:26:08.989Z,101944.00
2023-04-08T16:28:37.071Z,101935.47
2023-04-08T16:31:04.337Z,101944.84
2023-04-08T16:33:32.155Z,101948.25
2023-04-08T16:36:04.165Z,101954.00
2023-04-08T16:38:31.390Z,101947.50
2023-04-08T16:40:59.225Z,101970.56
2023-04-08T16:43:26.412Z,101961.75
2023-04-08T16:45:54.029Z,101967.03
2023-04-08T16:48:21.088Z,101977.38
2023-04-08T16:50:47.958Z,101975.72
2023-04-08T16:53:14.920Z,101983.72
2023-04-08T16:55:41.811Z,101988.50
2023-04-08T16:58:08.899Z,101996.00
2023-04-08T17:00:36.385Z,102001.00
2023-04-08T17:03:03.751Z,102005.63
2023-04-08T17:05:31.014Z,102019.72
2023-04-08T17:07:58.027Z,102012.75
2023-04-08T17:10:25.343Z,102027.69
2023-04-08T17:12:53.084Z,102029.38
2023-04-08T17:15:20.015Z,102041.25
2023-04-08T17:17:48.081Z,102037.44
2023-04-08T17:20:15.835Z,102038.34
2023-04-08T17:22:43.117Z,102040.13
2023-04-08T17:25:11.544Z,102058.22
2023-04-08T17:27:38.675Z,102056.56
2023-04-08T17:30:06.414Z,102070.88
2023-04-08T17:32:34.209Z,102067.53
2023-04-08T17:35:02.186Z,102071.78
2023-04-08T17:37:29.227Z,102075.34
2023-04-08T17:39:56.601Z,102078.56
2023-04-08T17:42:24.421Z,102076.56
2023-04-08T17:44:51.361Z,102083.03
2023-04-08T17:47:18.417Z,102086.59
2023-04-08T17:49:45.319Z,102081.25
2023-04-08T17:52:13.208Z,102106.22
2023-04-08T17:54:41.543Z,102106.03
2023-04-08T17:57:08.421Z,102102.75
2023-04-08T17:59:35.529Z,102118.22
2023-04-08T18:02:02.963Z,102116.78
2023-04-08T18:04:30.661Z,102129.78
2023-04-08T18:06:57.966Z,102123.38
2023-04-08T18:09:24.967Z,102135.94
2023-04-08T18:11:51.996Z,102134.47
2023-04-08T18:14:19.090Z,102136.50
2023-04-08T18:16:46.007Z,102149.66
2023-04-08T18:19:13.538Z,102147.19
2023-04-08T18:21:40.715Z,102157.81
2023-04-08T18:24:09.212Z,102144.41
2023-04-08T18:26:37.079Z,102161.50
2023-04-08T18:29:04.205Z,102164.34
2023-04-08T18:31:31.274Z,102166.16
2023-04-08T18:33:58.279Z,102170.88
2023-04-08T18:36:26.655Z,102167.97
2023-04-08T18:38:53.658Z,102175.97
2023-04-08T18:41:20.996Z,102183.16
2023-04-08T18:43:48.144Z,102196.13
2023-04-08T18:46:15.378Z,102191.59
2023-04-08T18:48:42.461Z,102190.75
2023-04-08T18:51:09.448Z,102199.63
2023-04-08T18:53:36.525Z,102201.47
2023-04-08T18:56:03.608Z,102204.56
2023-04-08T18:58:31.930Z,102206.22
2023-04-08T19:00:59.089Z,102208.69
2023-04-08T19:03:27.098Z,102212.59
2023-04-08T19:05:54.194Z,102212.38
2023-04-08T19:08:21.104Z,102211.38
2023-04-08T19:10:48.245Z,102205.81
2023-04-08T19:13:15.498Z,102209.13
2023-04-08T19:15:43.036Z,102224.19
2023-04-08T19:18:10.219Z,102230.59
2023-04-08T19:20:37.791Z,102224.22
2023-04-08T19:23:05.972Z,102224.84
2023-04-08T19:25:33.709Z,102217.44
2023-04-08T19:28:00.733Z,102221.56
2023-04-08T19:30:27.711Z,102211.50
2023-04-08T19:32:55.120Z,102222.63
2023-04-08T19:35:22.415Z,102222.41
2023-04-08T19:37:49.747Z,102225.53
2023-04-08T19:40:16.962Z,102222.06
2023-04-08T19:42:44.673Z,102209.06
2023-04-08T19:45:12.269Z,102210.34
2023-04-08T19:47:43.297Z,102220.03
2023-04-08T19:50:13.225Z,102222.31
2023-04-08T19:52:40.413Z,102221.06
2023-04-08T19:55:10.217Z,102220.84
2023-04-08T19:57:37.404Z,102228.88
2023-04-08T20:00:04.766Z,102223.72
2023-04-08T20:02:33.616Z,102222.06
2023-04-08T20:05:01.979Z,102235.69
2023-04-08T20:07:29.083Z,102228.28
2023-04-08T20:09:56.079Z,102233.00
2023-04-08T20:12:23.408Z,102227.41
2023-04-08T20:14:50.502Z,102228.44
2023-04-08T20:17:17.891Z,102226.34
2023-04-08T20:19:46.417Z,102225.72
2023-04-08T20:22:13.347Z,102222.22
2023-04-08T20:24:40.394Z,102228.59
2023-04-08T20:27:07.468Z,102229.03
2023-04-08T20:29:34.813Z,102226.34
2023-04-08T20:32:01.883Z,102231.91
2023-04-08T20:34:28.954Z,102234.56
2023-04-08T20:36:56.322Z,102240.34
2023-04-08T20:39:31.391Z,102223.25
2023-04-08T20:41:58.965Z,102236.44
2023-04-08T20:44:27.950Z,102236.03
2023-04-08T20:46:54.914Z,102230.03
2023-04-08T20:49:22.147Z,102225.31
2023-04-08T20:51:49.500Z,102221.19
2023-04-08T20:54:17.832Z,102228.19
2023-04-08T20:56:45.751Z,102231.69
2023-04-08T20:59:12.810Z,102226.75
2023-04-08T21:01:39.894Z,102234.34
2023-04-08T21:04:09.798Z,102230.41
2023-04-08T21:06:37.549Z,102236.78
2023-04-08T21:09:04.629Z,102243.78
2023-04-08T21:11:31.701Z,102245.22
2023-04-08T21:13:58.673Z,102249.34
2023-04-08T21:16:25.560Z,102246.66
2023-04-08T21:18:52.769Z,102246.66
2023-04-08T21:21:20.280Z,102234.13
2023-04-08T21:23:47.531Z,102246.06
2023-04-08T21:26:14.845Z,102249.78
2023-04-08T21:28:41.903Z,102249.78
2023-04-08T21:31:13.231Z,102246.06
2023-04-08T21:33:40.750Z,102247.09
2023-04-08T21:36:07.997Z,102244.63
2023-04-08T21:38:35.341Z,102245.44
2023-04-08T21:41:02.434Z,102240.72
2023-04-08T21:43:29.503Z,102238.25
2023-04-08T21:45:56.920Z,102243.78
2023-04-08T21:48:24.173Z,102244.00
2023-04-08T21:50:51.042Z,102242.94
2023-04-08T21:53:18.102Z,102236.31
2023-04-08T21:55:45.323Z,102244.34
2023-04-08T21:58:12.672Z,102241.44
2023-04-08T22:00:39.914Z,102243.50
2023-04-08T22:03:07.586Z,102236.06
2023-04-08T22:05:35.454Z,102239.97
2023-04-08T22:08:02.643Z,102243.22
2023-04-08T22:10:29.900Z,102240.75
2023-04-08T22:12:56.815Z,102225.22
2023-04-08T22:15:24.137Z,102245.16
2023-04-08T22:17:51.526Z,102234.81
2023-04-08T22:20:18.855Z,102238.84
2023-04-08T22:22:45.869Z,102235.91
2023-04-08T22:25:13.250Z,102241.59
2023-04-08T22:27:40.293Z,102232.91
2023-04-08T22:30:08.163Z,102229.56
2023-04-08T22:32:35.248Z,102231.53
2023-04-08T22:35:02.584Z,102230.19
2023-04-08T22:37:29.677Z,102225.97
2023-04-08T22:40:01.625Z,102220.75
2023-04-08T22:42:28.996Z,102223.72
2023-04-08T22:44:56.204Z,102218.69
2023-04-08T22:47:23.290Z,102222.13
2023-04-08T22:49:50.434Z,102221.78
2023-04-08T22:52:17.893Z,102213.91
2023-04-08T22:54:44.922Z,102208.84
2023-04-08T22:57:11.971Z,102205.47
2023-04-08T22:59:38.927Z,102207.44
2023-04-08T23:02:08.394Z,102210.63
2023-04-08T23:04:35.596Z,102210.53
2023-04-08T23:07:02.573Z,102223.97
2023-04-08T23:09:29.601Z,102218.91
2023-04-08T23:11:57.418Z,102214.69
2023-04-08T23:14:24.789Z,102214.22
2023-04-08T23:16:51.842Z,102212.03
2023-04-08T23:19:18.929Z,102216.06
2023-04-08T23:21:46.046Z,102210.19
2023-04-08T23:24:12.920Z,102219.19
2023-04-08T23:26:40.624Z,102213.75
2023-04-08T23:29:07.618Z,102212.19
2023-04-08T23:31:34.950Z,102214.38
2023-04-08T23:34:02.064Z,102219.22
2023-04-08T23:36:28.977Z,102211.31
2023-04-08T23:38:56.151Z,102213.31
2023-04-08T23:41:23.050Z,102213.84
2023-04-08T23:43:50.225Z,102206.94
2023-04-08T23:46:17.251Z,102219.78
2023-04-08T23:48:44.260Z,102210.47
2023-04-08T23:51:11.865Z,102215.16
2023-04-08T23:53:38.938Z,102215.88
2023-04-08T23:56:07.613Z,102210.72
2023-04-08T23:58:35.290Z,102219.25
